Ashland, Missouri
Current Conditions -  °F | °C
As of 9:19 PM on Saturday 22 Nov 2014 (Local Time) from KCOU Reporting Station
Broken Clouds Broken Clouds  
Wind Chill: 54°   Ceiling: 1400
Heat Index: 54°   Visibility: 10mi
Dew Point: 50°   Wind: 15mph
Humidity: 86%   Direction: 170°S
Pressure: 29.84"   Gusts: NA
Location:  38.77°N, 92.26°W
Report Text: KCOU 230319Z AUTO 17013KT 10SM BKN014 12/10 A2984 RMK AO2 T01220100 $
Loading
Personal Weather Stations






























Interactive Weather Map New forecast layout! Learn more

10-Day Weather Forecast

Advertisements
Track Severe Weather on mobile